sensor_id;sensor_type;location;lat;lon;timestamp;P1;durP1;ratioP1;P2;durP2;ratioP2
75016;SDS011;63577;39.766;2.720;2023-05-31T00:00:17;9.90;;;4.10;;
75016;SDS011;63577;39.766;2.720;2023-05-31T00:02:42;10.10;;;4.30;;
75016;SDS011;63577;39.766;2.720;2023-05-31T00:05:08;7.10;;;3.70;;
75016;SDS011;63577;39.766;2.720;2023-05-31T00:07:34;10.90;;;4.00;;
75016;SDS011;63577;39.766;2.720;2023-05-31T00:10:00;9.40;;;4.20;;
75016;SDS011;63577;39.766;2.720;2023-05-31T00:12:25;8.80;;;4.40;;
75016;SDS011;63577;39.766;2.720;2023-05-31T00:14:50;8.20;;;4.60;;
75016;SDS011;63577;39.766;2.720;2023-05-31T00:17:16;9.30;;;4.30;;
75016;SDS011;63577;39.766;2.720;2023-05-31T00:19:41;10.60;;;4.00;;
75016;SDS011;63577;39.766;2.720;2023-05-31T00:22:06;9.30;;;4.10;;
75016;SDS011;63577;39.766;2.720;2023-05-31T00:24:32;11.20;;;4.40;;
75016;SDS011;63577;39.766;2.720;2023-05-31T00:26:57;7.70;;;3.90;;
75016;SDS011;63577;39.766;2.720;2023-05-31T00:29:22;11.70;;;4.10;;
75016;SDS011;63577;39.766;2.720;2023-05-31T00:31:48;10.00;;;3.80;;
75016;SDS011;63577;39.766;2.720;2023-05-31T00:34:13;8.80;;;3.80;;
75016;SDS011;63577;39.766;2.720;2023-05-31T00:36:39;7.60;;;3.50;;
75016;SDS011;63577;39.766;2.720;2023-05-31T00:39:04;8.40;;;3.60;;
75016;SDS011;63577;39.766;2.720;2023-05-31T00:41:29;8.20;;;3.40;;
75016;SDS011;63577;39.766;2.720;2023-05-31T00:43:55;9.50;;;3.80;;
75016;SDS011;63577;39.766;2.720;2023-05-31T00:46:28;10.00;;;3.70;;
75016;SDS011;63577;39.766;2.720;2023-05-31T00:48:54;11.10;;;4.30;;
75016;SDS011;63577;39.766;2.720;2023-05-31T00:51:20;8.60;;;3.70;;
75016;SDS011;63577;39.766;2.720;2023-05-31T00:53:46;9.80;;;3.80;;
75016;SDS011;63577;39.766;2.720;2023-05-31T00:56:12;9.60;;;4.60;;
75016;SDS011;63577;39.766;2.720;2023-05-31T00:58:38;10.30;;;4.30;;
75016;SDS011;63577;39.766;2.720;2023-05-31T01:01:05;8.00;;;4.90;;
75016;SDS011;63577;39.766;2.720;2023-05-31T01:03:31;8.80;;;4.70;;
75016;SDS011;63577;39.766;2.720;2023-05-31T01:05:56;9.70;;;4.30;;
75016;SDS011;63577;39.766;2.720;2023-05-31T01:08:21;9.10;;;4.30;;
75016;SDS011;63577;39.766;2.720;2023-05-31T01:10:47;8.90;;;4.40;;
75016;SDS011;63577;39.766;2.720;2023-05-31T01:18:44;9.20;;;4.50;;
75016;SDS011;63577;39.766;2.720;2023-05-31T01:21:15;7.70;;;3.60;;
75016;SDS011;63577;39.766;2.720;2023-05-31T01:28:59;9.20;;;3.70;;
75016;SDS011;63577;39.766;2.720;2023-05-31T01:31:25;10.40;;;4.30;;
75016;SDS011;63577;39.766;2.720;2023-05-31T01:33:52;9.10;;;3.70;;
75016;SDS011;63577;39.766;2.720;2023-05-31T01:36:18;9.90;;;3.70;;
75016;SDS011;63577;39.766;2.720;2023-05-31T01:38:43;7.10;;;3.60;;
75016;SDS011;63577;39.766;2.720;2023-05-31T01:41:09;9.60;;;3.70;;
75016;SDS011;63577;39.766;2.720;2023-05-31T01:43:39;10.70;;;3.90;;
75016;SDS011;63577;39.766;2.720;2023-05-31T01:46:05;10.90;;;4.30;;
75016;SDS011;63577;39.766;2.720;2023-05-31T01:48:31;7.70;;;3.70;;
75016;SDS011;63577;39.766;2.720;2023-05-31T01:50:57;9.40;;;3.70;;
75016;SDS011;63577;39.766;2.720;2023-05-31T01:53:23;8.60;;;3.80;;
75016;SDS011;63577;39.766;2.720;2023-05-31T01:55:48;7.60;;;3.70;;
75016;SDS011;63577;39.766;2.720;2023-05-31T01:58:14;8.40;;;3.90;;
75016;SDS011;63577;39.766;2.720;2023-05-31T02:00:40;7.30;;;3.70;;
75016;SDS011;63577;39.766;2.720;2023-05-31T02:03:06;8.20;;;3.80;;
75016;SDS011;63577;39.766;2.720;2023-05-31T02:05:32;11.20;;;4.30;;
75016;SDS011;63577;39.766;2.720;2023-05-31T02:07:57;9.80;;;4.20;;
75016;SDS011;63577;39.766;2.720;2023-05-31T02:10:23;11.60;;;4.50;;
75016;SDS011;63577;39.766;2.720;2023-05-31T02:12:48;12.60;;;5.70;;
75016;SDS011;63577;39.766;2.720;2023-05-31T02:15:18;12.70;;;5.60;;
75016;SDS011;63577;39.766;2.720;2023-05-31T02:17:45;11.40;;;5.50;;
75016;SDS011;63577;39.766;2.720;2023-05-31T02:20:11;10.50;;;5.70;;
75016;SDS011;63577;39.766;2.720;2023-05-31T02:22:38;12.10;;;5.60;;
75016;SDS011;63577;39.766;2.720;2023-05-31T02:25:04;11.60;;;5.30;;
75016;SDS011;63577;39.766;2.720;2023-05-31T02:27:30;10.20;;;5.20;;
75016;SDS011;63577;39.766;2.720;2023-05-31T02:29:55;10.80;;;4.60;;
75016;SDS011;63577;39.766;2.720;2023-05-31T02:32:20;11.50;;;4.60;;
75016;SDS011;63577;39.766;2.720;2023-05-31T02:34:46;8.90;;;4.50;;
75016;SDS011;63577;39.766;2.720;2023-05-31T02:37:11;7.60;;;4.20;;
75016;SDS011;63577;39.766;2.720;2023-05-31T02:39:36;9.60;;;4.50;;
75016;SDS011;63577;39.766;2.720;2023-05-31T02:42:02;10.20;;;4.20;;
75016;SDS011;63577;39.766;2.720;2023-05-31T02:44:27;8.40;;;4.70;;
75016;SDS011;63577;39.766;2.720;2023-05-31T02:46:53;9.50;;;4.70;;
75016;SDS011;63577;39.766;2.720;2023-05-31T02:49:18;10.50;;;4.10;;
75016;SDS011;63577;39.766;2.720;2023-05-31T02:51:44;8.90;;;4.40;;
75016;SDS011;63577;39.766;2.720;2023-05-31T02:54:09;8.90;;;3.90;;
75016;SDS011;63577;39.766;2.720;2023-05-31T02:56:34;8.60;;;4.60;;
75016;SDS011;63577;39.766;2.720;2023-05-31T02:59:00;7.60;;;4.00;;
75016;SDS011;63577;39.766;2.720;2023-05-31T03:01:25;8.70;;;4.10;;
75016;SDS011;63577;39.766;2.720;2023-05-31T03:03:51;8.80;;;4.30;;
75016;SDS011;63577;39.766;2.720;2023-05-31T03:06:16;7.40;;;4.30;;
75016;SDS011;63577;39.766;2.720;2023-05-31T03:08:44;10.40;;;4.10;;
75016;SDS011;63577;39.766;2.720;2023-05-31T03:11:10;8.30;;;4.00;;
75016;SDS011;63577;39.766;2.720;2023-05-31T03:13:35;8.20;;;4.20;;
75016;SDS011;63577;39.766;2.720;2023-05-31T03:16:00;9.60;;;4.00;;
75016;SDS011;63577;39.766;2.720;2023-05-31T03:18:26;7.90;;;4.00;;
75016;SDS011;63577;39.766;2.720;2023-05-31T03:20:51;9.20;;;4.10;;
75016;SDS011;63577;39.766;2.720;2023-05-31T03:23:16;11.70;;;4.00;;
75016;SDS011;63577;39.766;2.720;2023-05-31T03:25:42;8.30;;;3.90;;
75016;SDS011;63577;39.766;2.720;2023-05-31T03:28:07;9.90;;;4.00;;
75016;SDS011;63577;39.766;2.720;2023-05-31T03:30:32;9.70;;;3.70;;
75016;SDS011;63577;39.766;2.720;2023-05-31T03:32:58;7.80;;;3.60;;
75016;SDS011;63577;39.766;2.720;2023-05-31T03:35:23;7.70;;;3.70;;
75016;SDS011;63577;39.766;2.720;2023-05-31T03:37:48;7.20;;;3.50;;
75016;SDS011;63577;39.766;2.720;2023-05-31T03:40:14;9.50;;;4.30;;
75016;SDS011;63577;39.766;2.720;2023-05-31T03:42:39;8.00;;;3.60;;
75016;SDS011;63577;39.766;2.720;2023-05-31T03:45:05;9.00;;;3.70;;
75016;SDS011;63577;39.766;2.720;2023-05-31T03:47:30;9.20;;;3.80;;
75016;SDS011;63577;39.766;2.720;2023-05-31T03:49:56;9.00;;;4.60;;
75016;SDS011;63577;39.766;2.720;2023-05-31T03:52:21;9.80;;;4.60;;
75016;SDS011;63577;39.766;2.720;2023-05-31T03:54:47;6.60;;;3.90;;
75016;SDS011;63577;39.766;2.720;2023-05-31T03:57:12;8.30;;;4.00;;
75016;SDS011;63577;39.766;2.720;2023-05-31T03:59:38;11.60;;;4.70;;
75016;SDS011;63577;39.766;2.720;2023-05-31T04:02:03;10.30;;;4.90;;
75016;SDS011;63577;39.766;2.720;2023-05-31T04:04:29;10.20;;;4.70;;
75016;SDS011;63577;39.766;2.720;2023-05-31T04:06:54;9.50;;;5.40;;
75016;SDS011;63577;39.766;2.720;2023-05-31T04:09:19;9.20;;;4.80;;
75016;SDS011;63577;39.766;2.720;2023-05-31T04:11:45;10.00;;;5.30;;
75016;SDS011;63577;39.766;2.720;2023-05-31T04:14:10;10.70;;;5.60;;
75016;SDS011;63577;39.766;2.720;2023-05-31T04:16:36;10.30;;;5.40;;
75016;SDS011;63577;39.766;2.720;2023-05-31T04:19:01;9.80;;;4.30;;
75016;SDS011;63577;39.766;2.720;2023-05-31T04:21:27;9.00;;;4.90;;
75016;SDS011;63577;39.766;2.720;2023-05-31T04:23:58;9.50;;;4.60;;
75016;SDS011;63577;39.766;2.720;2023-05-31T04:26:23;11.50;;;4.50;;
75016;SDS011;63577;39.766;2.720;2023-05-31T04:28:48;10.60;;;4.80;;
75016;SDS011;63577;39.766;2.720;2023-05-31T04:31:22;9.20;;;4.80;;
75016;SDS011;63577;39.766;2.720;2023-05-31T04:33:53;8.90;;;4.00;;
75016;SDS011;63577;39.766;2.720;2023-05-31T04:36:22;10.00;;;4.90;;
75016;SDS011;63577;39.766;2.720;2023-05-31T04:38:49;8.50;;;4.00;;
75016;SDS011;63577;39.766;2.720;2023-05-31T04:41:16;9.10;;;4.40;;
75016;SDS011;63577;39.766;2.720;2023-05-31T04:43:41;8.30;;;4.50;;
75016;SDS011;63577;39.766;2.720;2023-05-31T04:46:08;9.20;;;5.20;;
75016;SDS011;63577;39.766;2.720;2023-05-31T04:48:35;9.10;;;4.30;;
75016;SDS011;63577;39.766;2.720;2023-05-31T04:51:00;11.40;;;5.40;;
75016;SDS011;63577;39.766;2.720;2023-05-31T04:53:25;8.40;;;5.10;;
75016;SDS011;63577;39.766;2.720;2023-05-31T04:55:51;9.60;;;4.80;;
75016;SDS011;63577;39.766;2.720;2023-05-31T04:58:19;11.50;;;5.00;;
75016;SDS011;63577;39.766;2.720;2023-05-31T05:00:45;10.50;;;5.50;;
75016;SDS011;63577;39.766;2.720;2023-05-31T05:03:11;9.80;;;5.40;;
75016;SDS011;63577;39.766;2.720;2023-05-31T05:05:37;10.00;;;5.20;;
75016;SDS011;63577;39.766;2.720;2023-05-31T05:08:02;9.80;;;5.10;;
75016;SDS011;63577;39.766;2.720;2023-05-31T05:10:28;11.20;;;5.40;;
75016;SDS011;63577;39.766;2.720;2023-05-31T05:12:53;11.60;;;5.10;;
75016;SDS011;63577;39.766;2.720;2023-05-31T05:15:19;9.30;;;5.20;;
75016;SDS011;63577;39.766;2.720;2023-05-31T05:17:44;8.50;;;4.90;;
75016;SDS011;63577;39.766;2.720;2023-05-31T05:20:11;10.00;;;5.00;;
75016;SDS011;63577;39.766;2.720;2023-05-31T05:22:37;8.60;;;4.60;;
75016;SDS011;63577;39.766;2.720;2023-05-31T05:25:02;10.40;;;4.60;;
75016;SDS011;63577;39.766;2.720;2023-05-31T05:30:31;9.50;;;4.80;;
75016;SDS011;63577;39.766;2.720;2023-05-31T05:32:57;9.70;;;5.50;;
75016;SDS011;63577;39.766;2.720;2023-05-31T05:35:22;9.60;;;5.20;;
75016;SDS011;63577;39.766;2.720;2023-05-31T05:37:48;10.10;;;5.20;;
75016;SDS011;63577;39.766;2.720;2023-05-31T05:40:13;10.30;;;5.30;;
75016;SDS011;63577;39.766;2.720;2023-05-31T05:45:41;8.80;;;5.50;;
75016;SDS011;63577;39.766;2.720;2023-05-31T05:48:07;10.10;;;5.40;;
75016;SDS011;63577;39.766;2.720;2023-05-31T05:50:33;11.50;;;6.60;;
75016;SDS011;63577;39.766;2.720;2023-05-31T05:52:58;10.00;;;6.20;;
75016;SDS011;63577;39.766;2.720;2023-05-31T05:55:23;12.40;;;6.10;;
75016;SDS011;63577;39.766;2.720;2023-05-31T05:57:49;11.40;;;7.00;;
75016;SDS011;63577;39.766;2.720;2023-05-31T06:00:16;11.80;;;6.50;;
75016;SDS011;63577;39.766;2.720;2023-05-31T06:02:43;13.80;;;7.60;;
75016;SDS011;63577;39.766;2.720;2023-05-31T06:05:08;12.70;;;6.90;;
75016;SDS011;63577;39.766;2.720;2023-05-31T06:07:34;13.20;;;5.80;;
75016;SDS011;63577;39.766;2.720;2023-05-31T06:09:59;11.90;;;5.60;;
75016;SDS011;63577;39.766;2.720;2023-05-31T06:12:25;15.80;;;6.40;;
75016;SDS011;63577;39.766;2.720;2023-05-31T06:14:50;12.90;;;4.80;;
75016;SDS011;63577;39.766;2.720;2023-05-31T06:17:16;11.70;;;5.40;;
75016;SDS011;63577;39.766;2.720;2023-05-31T06:19:41;13.90;;;5.80;;
75016;SDS011;63577;39.766;2.720;2023-05-31T06:22:07;11.30;;;5.70;;
75016;SDS011;63577;39.766;2.720;2023-05-31T06:24:32;10.10;;;5.70;;
75016;SDS011;63577;39.766;2.720;2023-05-31T06:26:57;12.70;;;5.70;;
75016;SDS011;63577;39.766;2.720;2023-05-31T06:29:23;11.10;;;5.50;;
75016;SDS011;63577;39.766;2.720;2023-05-31T06:31:48;12.60;;;6.10;;
75016;SDS011;63577;39.766;2.720;2023-05-31T06:34:14;11.80;;;5.70;;
75016;SDS011;63577;39.766;2.720;2023-05-31T06:36:40;11.50;;;5.90;;
75016;SDS011;63577;39.766;2.720;2023-05-31T06:39:06;12.10;;;6.50;;
75016;SDS011;63577;39.766;2.720;2023-05-31T06:41:31;10.30;;;6.30;;
75016;SDS011;63577;39.766;2.720;2023-05-31T06:43:59;13.50;;;7.10;;
75016;SDS011;63577;39.766;2.720;2023-05-31T06:46:25;13.00;;;7.10;;
75016;SDS011;63577;39.766;2.720;2023-05-31T06:48:50;12.70;;;6.70;;
75016;SDS011;63577;39.766;2.720;2023-05-31T06:51:16;11.90;;;6.30;;
75016;SDS011;63577;39.766;2.720;2023-05-31T06:53:44;10.50;;;6.50;;
75016;SDS011;63577;39.766;2.720;2023-05-31T06:56:10;11.50;;;6.50;;
75016;SDS011;63577;39.766;2.720;2023-05-31T06:58:35;12.30;;;6.10;;
75016;SDS011;63577;39.766;2.720;2023-05-31T07:01:00;12.30;;;5.10;;
75016;SDS011;63577;39.766;2.720;2023-05-31T07:03:26;10.30;;;5.90;;
75016;SDS011;63577;39.766;2.720;2023-05-31T07:05:51;10.20;;;5.30;;
75016;SDS011;63577;39.766;2.720;2023-05-31T07:08:16;12.00;;;5.70;;
75016;SDS011;63577;39.766;2.720;2023-05-31T07:10:42;11.60;;;6.00;;
75016;SDS011;63577;39.766;2.720;2023-05-31T07:13:07;12.10;;;6.00;;
75016;SDS011;63577;39.766;2.720;2023-05-31T07:15:35;9.90;;;5.40;;
75016;SDS011;63577;39.766;2.720;2023-05-31T07:18:01;8.70;;;5.10;;
75016;SDS011;63577;39.766;2.720;2023-05-31T07:20:26;10.60;;;5.20;;
75016;SDS011;63577;39.766;2.720;2023-05-31T07:22:52;8.30;;;5.10;;
75016;SDS011;63577;39.766;2.720;2023-05-31T07:25:17;8.70;;;5.20;;
75016;SDS011;63577;39.766;2.720;2023-05-31T07:27:42;9.90;;;5.00;;
75016;SDS011;63577;39.766;2.720;2023-05-31T07:30:08;9.50;;;4.80;;
75016;SDS011;63577;39.766;2.720;2023-05-31T07:32:33;8.90;;;4.60;;
75016;SDS011;63577;39.766;2.720;2023-05-31T07:34:59;8.30;;;5.20;;
75016;SDS011;63577;39.766;2.720;2023-05-31T07:37:24;7.40;;;4.70;;
75016;SDS011;63577;39.766;2.720;2023-05-31T07:39:50;8.20;;;4.70;;
75016;SDS011;63577;39.766;2.720;2023-05-31T07:42:15;8.80;;;5.10;;
75016;SDS011;63577;39.766;2.720;2023-05-31T07:44:40;8.80;;;4.80;;
75016;SDS011;63577;39.766;2.720;2023-05-31T07:47:06;8.70;;;4.70;;
75016;SDS011;63577;39.766;2.720;2023-05-31T07:49:31;8.60;;;4.30;;
75016;SDS011;63577;39.766;2.720;2023-05-31T07:51:57;8.00;;;5.20;;
75016;SDS011;63577;39.766;2.720;2023-05-31T07:54:22;8.30;;;5.10;;
75016;SDS011;63577;39.766;2.720;2023-05-31T07:56:47;9.00;;;5.00;;
75016;SDS011;63577;39.766;2.720;2023-05-31T07:59:13;8.00;;;5.00;;
75016;SDS011;63577;39.766;2.720;2023-05-31T08:01:38;8.60;;;5.30;;
75016;SDS011;63577;39.766;2.720;2023-05-31T08:04:11;10.10;;;5.60;;
75016;SDS011;63577;39.766;2.720;2023-05-31T08:06:37;9.50;;;5.10;;
75016;SDS011;63577;39.766;2.720;2023-05-31T08:09:02;8.00;;;4.20;;
75016;SDS011;63577;39.766;2.720;2023-05-31T08:11:29;10.10;;;4.70;;
75016;SDS011;63577;39.766;2.720;2023-05-31T08:13:55;9.30;;;4.80;;
75016;SDS011;63577;39.766;2.720;2023-05-31T08:16:20;10.90;;;6.20;;
75016;SDS011;63577;39.766;2.720;2023-05-31T08:18:45;30.70;;;13.50;;
75016;SDS011;63577;39.766;2.720;2023-05-31T08:21:11;23.60;;;11.70;;
75016;SDS011;63577;39.766;2.720;2023-05-31T08:23:36;19.40;;;8.40;;
75016;SDS011;63577;39.766;2.720;2023-05-31T08:26:01;10.60;;;5.80;;
75016;SDS011;63577;39.766;2.720;2023-05-31T08:28:27;10.60;;;5.50;;
75016;SDS011;63577;39.766;2.720;2023-05-31T08:30:55;10.10;;;4.90;;
75016;SDS011;63577;39.766;2.720;2023-05-31T08:33:20;9.60;;;4.00;;
75016;SDS011;63577;39.766;2.720;2023-05-31T08:35:46;12.50;;;5.40;;
75016;SDS011;63577;39.766;2.720;2023-05-31T08:38:12;10.20;;;4.10;;
75016;SDS011;63577;39.766;2.720;2023-05-31T08:40:38;12.20;;;4.30;;
75016;SDS011;63577;39.766;2.720;2023-05-31T08:43:05;9.50;;;3.60;;
75016;SDS011;63577;39.766;2.720;2023-05-31T08:45:40;10.00;;;4.30;;
75016;SDS011;63577;39.766;2.720;2023-05-31T08:50:51;11.40;;;4.60;;
75016;SDS011;63577;39.766;2.720;2023-05-31T08:53:16;20.20;;;8.50;;
75016;SDS011;63577;39.766;2.720;2023-05-31T08:55:43;19.70;;;7.30;;
75016;SDS011;63577;39.766;2.720;2023-05-31T08:58:09;18.10;;;6.50;;
75016;SDS011;63577;39.766;2.720;2023-05-31T09:00:36;10.20;;;4.20;;
75016;SDS011;63577;39.766;2.720;2023-05-31T09:03:01;15.80;;;7.40;;
75016;SDS011;63577;39.766;2.720;2023-05-31T09:05:28;22.60;;;10.70;;
75016;SDS011;63577;39.766;2.720;2023-05-31T09:07:55;22.60;;;9.40;;
75016;SDS011;63577;39.766;2.720;2023-05-31T09:10:20;17.00;;;7.60;;
75016;SDS011;63577;39.766;2.720;2023-05-31T09:12:46;10.80;;;4.80;;
75016;SDS011;63577;39.766;2.720;2023-05-31T09:15:14;11.50;;;5.30;;
75016;SDS011;63577;39.766;2.720;2023-05-31T09:17:43;11.60;;;4.30;;
75016;SDS011;63577;39.766;2.720;2023-05-31T09:20:12;11.20;;;4.30;;
75016;SDS011;63577;39.766;2.720;2023-05-31T09:22:37;8.50;;;3.50;;
75016;SDS011;63577;39.766;2.720;2023-05-31T09:25:03;8.70;;;3.80;;
75016;SDS011;63577;39.766;2.720;2023-05-31T09:27:38;10.30;;;4.50;;
75016;SDS011;63577;39.766;2.720;2023-05-31T09:30:04;10.30;;;4.40;;
75016;SDS011;63577;39.766;2.720;2023-05-31T09:32:30;13.00;;;5.30;;
75016;SDS011;63577;39.766;2.720;2023-05-31T09:35:03;8.90;;;4.80;;
75016;SDS011;63577;39.766;2.720;2023-05-31T09:37:38;8.60;;;3.80;;
75016;SDS011;63577;39.766;2.720;2023-05-31T09:40:06;10.00;;;4.70;;
75016;SDS011;63577;39.766;2.720;2023-05-31T09:42:32;13.80;;;5.20;;
75016;SDS011;63577;39.766;2.720;2023-05-31T09:44:58;10.00;;;4.20;;
75016;SDS011;63577;39.766;2.720;2023-05-31T09:47:24;10.20;;;4.60;;
75016;SDS011;63577;39.766;2.720;2023-05-31T09:49:52;11.90;;;4.30;;
75016;SDS011;63577;39.766;2.720;2023-05-31T09:52:17;9.00;;;3.80;;
75016;SDS011;63577;39.766;2.720;2023-05-31T09:54:45;9.50;;;3.80;;
75016;SDS011;63577;39.766;2.720;2023-05-31T09:57:22;9.10;;;4.00;;
75016;SDS011;63577;39.766;2.720;2023-05-31T09:59:56;12.30;;;4.50;;
75016;SDS011;63577;39.766;2.720;2023-05-31T10:02:23;10.70;;;4.90;;
75016;SDS011;63577;39.766;2.720;2023-05-31T10:04:49;10.20;;;5.80;;
75016;SDS011;63577;39.766;2.720;2023-05-31T10:07:15;10.60;;;5.40;;
75016;SDS011;63577;39.766;2.720;2023-05-31T10:09:40;7.10;;;4.50;;
75016;SDS011;63577;39.766;2.720;2023-05-31T10:12:06;13.00;;;5.30;;
75016;SDS011;63577;39.766;2.720;2023-05-31T10:14:32;9.90;;;4.50;;
75016;SDS011;63577;39.766;2.720;2023-05-31T10:17:03;11.90;;;4.00;;
75016;SDS011;63577;39.766;2.720;2023-05-31T10:19:44;11.30;;;3.60;;
75016;SDS011;63577;39.766;2.720;2023-05-31T10:22:12;8.60;;;3.40;;
75016;SDS011;63577;39.766;2.720;2023-05-31T10:24:44;7.30;;;3.40;;
75016;SDS011;63577;39.766;2.720;2023-05-31T10:27:16;11.40;;;4.40;;
75016;SDS011;63577;39.766;2.720;2023-05-31T10:29:45;11.20;;;3.70;;
75016;SDS011;63577;39.766;2.720;2023-05-31T10:32:15;7.60;;;3.00;;
75016;SDS011;63577;39.766;2.720;2023-05-31T10:34:41;8.90;;;3.30;;
75016;SDS011;63577;39.766;2.720;2023-05-31T10:37:06;9.90;;;3.30;;
75016;SDS011;63577;39.766;2.720;2023-05-31T10:39:44;10.30;;;3.20;;
75016;SDS011;63577;39.766;2.720;2023-05-31T10:42:36;10.20;;;2.80;;
75016;SDS011;63577;39.766;2.720;2023-05-31T10:47:45;7.30;;;2.80;;
75016;SDS011;63577;39.766;2.720;2023-05-31T10:50:18;12.10;;;3.20;;
75016;SDS011;63577;39.766;2.720;2023-05-31T10:52:51;10.80;;;3.10;;
75016;SDS011;63577;39.766;2.720;2023-05-31T10:55:18;9.40;;;3.60;;
75016;SDS011;63577;39.766;2.720;2023-05-31T10:57:44;10.50;;;3.10;;
75016;SDS011;63577;39.766;2.720;2023-05-31T11:00:09;10.60;;;3.30;;
75016;SDS011;63577;39.766;2.720;2023-05-31T11:02:46;14.70;;;3.40;;
75016;SDS011;63577;39.766;2.720;2023-05-31T11:05:21;10.50;;;3.30;;
75016;SDS011;63577;39.766;2.720;2023-05-31T11:07:48;9.70;;;3.00;;
75016;SDS011;63577;39.766;2.720;2023-05-31T11:10:27;11.80;;;3.10;;
75016;SDS011;63577;39.766;2.720;2023-05-31T11:12:55;12.40;;;2.90;;
75016;SDS011;63577;39.766;2.720;2023-05-31T11:15:21;9.80;;;2.80;;
75016;SDS011;63577;39.766;2.720;2023-05-31T11:17:53;12.40;;;3.30;;
75016;SDS011;63577;39.766;2.720;2023-05-31T11:20:19;8.70;;;3.10;;
75016;SDS011;63577;39.766;2.720;2023-05-31T11:22:45;9.90;;;3.00;;
75016;SDS011;63577;39.766;2.720;2023-05-31T11:25:20;13.60;;;3.40;;
75016;SDS011;63577;39.766;2.720;2023-05-31T11:27:45;11.10;;;3.40;;
75016;SDS011;63577;39.766;2.720;2023-05-31T11:30:13;11.50;;;3.30;;
75016;SDS011;63577;39.766;2.720;2023-05-31T11:35:14;9.80;;;3.10;;
75016;SDS011;63577;39.766;2.720;2023-05-31T11:37:40;8.60;;;3.30;;
75016;SDS011;63577;39.766;2.720;2023-05-31T11:42:41;8.90;;;2.80;;
75016;SDS011;63577;39.766;2.720;2023-05-31T11:45:07;9.20;;;3.50;;
75016;SDS011;63577;39.766;2.720;2023-05-31T11:47:47;10.70;;;3.00;;
75016;SDS011;63577;39.766;2.720;2023-05-31T11:50:15;8.50;;;3.20;;
75016;SDS011;63577;39.766;2.720;2023-05-31T11:52:41;8.40;;;3.00;;
75016;SDS011;63577;39.766;2.720;2023-05-31T11:55:07;8.30;;;3.00;;
75016;SDS011;63577;39.766;2.720;2023-05-31T11:57:39;7.40;;;2.90;;
75016;SDS011;63577;39.766;2.720;2023-05-31T12:00:07;9.20;;;3.60;;
75016;SDS011;63577;39.766;2.720;2023-05-31T12:02:37;12.70;;;3.50;;
75016;SDS011;63577;39.766;2.720;2023-05-31T12:05:02;8.50;;;3.20;;
75016;SDS011;63577;39.766;2.720;2023-05-31T12:07:29;11.10;;;3.60;;
75016;SDS011;63577;39.766;2.720;2023-05-31T12:09:55;14.80;;;3.90;;
75016;SDS011;63577;39.766;2.720;2023-05-31T12:12:20;16.10;;;4.60;;
75016;SDS011;63577;39.766;2.720;2023-05-31T12:14:49;12.10;;;4.20;;
75016;SDS011;63577;39.766;2.720;2023-05-31T12:17:16;15.50;;;4.00;;
75016;SDS011;63577;39.766;2.720;2023-05-31T12:19:41;11.50;;;4.40;;
75016;SDS011;63577;39.766;2.720;2023-05-31T12:22:07;11.90;;;4.00;;
75016;SDS011;63577;39.766;2.720;2023-05-31T12:24:32;10.80;;;3.50;;
75016;SDS011;63577;39.766;2.720;2023-05-31T12:26:57;10.20;;;4.60;;
75016;SDS011;63577;39.766;2.720;2023-05-31T12:29:29;10.10;;;3.80;;
75016;SDS011;63577;39.766;2.720;2023-05-31T12:32:04;12.90;;;3.80;;
75016;SDS011;63577;39.766;2.720;2023-05-31T12:34:35;11.80;;;4.70;;
75016;SDS011;63577;39.766;2.720;2023-05-31T12:37:08;11.80;;;3.90;;
75016;SDS011;63577;39.766;2.720;2023-05-31T12:39:34;12.50;;;4.80;;
75016;SDS011;63577;39.766;2.720;2023-05-31T12:42:00;13.10;;;4.30;;
75016;SDS011;63577;39.766;2.720;2023-05-31T12:44:25;13.30;;;6.10;;
75016;SDS011;63577;39.766;2.720;2023-05-31T12:46:51;14.80;;;4.80;;
75016;SDS011;63577;39.766;2.720;2023-05-31T12:49:28;11.00;;;4.70;;
75016;SDS011;63577;39.766;2.720;2023-05-31T12:54:27;11.80;;;4.80;;
75016;SDS011;63577;39.766;2.720;2023-05-31T12:56:53;12.10;;;4.70;;
75016;SDS011;63577;39.766;2.720;2023-05-31T12:59:19;12.50;;;4.30;;
75016;SDS011;63577;39.766;2.720;2023-05-31T13:01:45;13.40;;;4.60;;
75016;SDS011;63577;39.766;2.720;2023-05-31T13:04:10;10.10;;;3.80;;
75016;SDS011;63577;39.766;2.720;2023-05-31T13:06:37;10.10;;;4.40;;
75016;SDS011;63577;39.766;2.720;2023-05-31T13:09:03;11.40;;;3.70;;
75016;SDS011;63577;39.766;2.720;2023-05-31T13:11:31;10.20;;;4.70;;
75016;SDS011;63577;39.766;2.720;2023-05-31T13:13:56;11.60;;;4.00;;
75016;SDS011;63577;39.766;2.720;2023-05-31T13:16:22;11.10;;;4.60;;
75016;SDS011;63577;39.766;2.720;2023-05-31T13:18:47;12.10;;;4.00;;
75016;SDS011;63577;39.766;2.720;2023-05-31T13:21:12;10.50;;;4.00;;
75016;SDS011;63577;39.766;2.720;2023-05-31T13:23:38;9.60;;;4.20;;
75016;SDS011;63577;39.766;2.720;2023-05-31T13:26:03;11.20;;;4.40;;
75016;SDS011;63577;39.766;2.720;2023-05-31T13:28:28;9.40;;;4.20;;
75016;SDS011;63577;39.766;2.720;2023-05-31T13:30:54;9.30;;;4.00;;
75016;SDS011;63577;39.766;2.720;2023-05-31T13:33:19;10.20;;;4.00;;
75016;SDS011;63577;39.766;2.720;2023-05-31T13:35:45;8.10;;;3.60;;
75016;SDS011;63577;39.766;2.720;2023-05-31T13:38:10;8.30;;;3.00;;
75016;SDS011;63577;39.766;2.720;2023-05-31T13:40:35;8.50;;;3.60;;
75016;SDS011;63577;39.766;2.720;2023-05-31T13:43:02;10.50;;;3.70;;
75016;SDS011;63577;39.766;2.720;2023-05-31T13:45:28;8.20;;;3.30;;
75016;SDS011;63577;39.766;2.720;2023-05-31T13:47:54;6.10;;;3.10;;
75016;SDS011;63577;39.766;2.720;2023-05-31T13:50:20;8.00;;;3.50;;
75016;SDS011;63577;39.766;2.720;2023-05-31T13:52:45;8.10;;;3.40;;
75016;SDS011;63577;39.766;2.720;2023-05-31T13:55:11;8.60;;;3.50;;
75016;SDS011;63577;39.766;2.720;2023-05-31T13:57:36;8.40;;;3.80;;
75016;SDS011;63577;39.766;2.720;2023-05-31T14:00:02;11.10;;;3.20;;
75016;SDS011;63577;39.766;2.720;2023-05-31T14:02:29;8.10;;;3.60;;
75016;SDS011;63577;39.766;2.720;2023-05-31T14:04:57;11.20;;;3.40;;
75016;SDS011;63577;39.766;2.720;2023-05-31T14:07:22;7.00;;;3.00;;
75016;SDS011;63577;39.766;2.720;2023-05-31T14:09:47;10.10;;;3.80;;
75016;SDS011;63577;39.766;2.720;2023-05-31T14:12:13;9.60;;;3.90;;
75016;SDS011;63577;39.766;2.720;2023-05-31T14:14:39;9.80;;;4.10;;
75016;SDS011;63577;39.766;2.720;2023-05-31T14:17:04;11.50;;;4.00;;
75016;SDS011;63577;39.766;2.720;2023-05-31T14:19:30;8.30;;;3.40;;
75016;SDS011;63577;39.766;2.720;2023-05-31T14:21:55;9.70;;;3.60;;
75016;SDS011;63577;39.766;2.720;2023-05-31T14:24:20;8.30;;;4.20;;
75016;SDS011;63577;39.766;2.720;2023-05-31T14:26:46;8.10;;;3.80;;
75016;SDS011;63577;39.766;2.720;2023-05-31T14:29:11;9.30;;;4.20;;
75016;SDS011;63577;39.766;2.720;2023-05-31T14:31:36;9.30;;;3.90;;
75016;SDS011;63577;39.766;2.720;2023-05-31T14:34:03;8.80;;;4.00;;
75016;SDS011;63577;39.766;2.720;2023-05-31T14:36:28;9.60;;;3.70;;
75016;SDS011;63577;39.766;2.720;2023-05-31T14:38:54;10.20;;;4.00;;
75016;SDS011;63577;39.766;2.720;2023-05-31T14:41:19;14.30;;;4.80;;
75016;SDS011;63577;39.766;2.720;2023-05-31T14:43:45;10.20;;;4.60;;
75016;SDS011;63577;39.766;2.720;2023-05-31T14:46:12;15.90;;;5.10;;
75016;SDS011;63577;39.766;2.720;2023-05-31T14:48:37;16.50;;;5.50;;
75016;SDS011;63577;39.766;2.720;2023-05-31T14:51:03;16.00;;;5.50;;
75016;SDS011;63577;39.766;2.720;2023-05-31T14:53:28;19.20;;;5.70;;
75016;SDS011;63577;39.766;2.720;2023-05-31T14:55:53;9.80;;;4.70;;
75016;SDS011;63577;39.766;2.720;2023-05-31T14:58:19;10.80;;;4.90;;
75016;SDS011;63577;39.766;2.720;2023-05-31T15:00:45;9.40;;;5.40;;
75016;SDS011;63577;39.766;2.720;2023-05-31T15:03:11;10.30;;;5.10;;
75016;SDS011;63577;39.766;2.720;2023-05-31T15:05:36;9.60;;;5.00;;